Terminal Aerodrome Forecast
Issued by NWS

Home | Current Version | Previous Version | Graphics & Text | Print | Product List | Glossary On
Versions: 1 2 3 4 5 6 7 8 9 10 11 12 13 14 15
000
FTUS41 KCLE 281700
TAFFDY
TAF
KFDY 281732Z 2818/2918 05005KT P6SM BKN035
     FM281900 06005KT P6SM FEW035 BKN250
     FM291000 15008KT P6SM BKN100=

USA.gov is the U.S. government's official web portal to all federal, state and local government web resources and services.